www.cux-wetter.de
Wetterdaten: Donnerstag, 09.02.2012
Datum Zeit Temp. A. Feuchte A. Luftdruck Regen Wind Richtung Richtung Sonnenschein Solar Taupunkt Windchill Windben
09.02.2012 00:15 -1,6 C 83 % 1038,5 hPa 0,0 l/m 6,1 km/h (2 Bft) NO 50 0 min 0 W/m -4,1 C -1,6 C 6,1 km/h (2 Bft)
09.02.2012 00:30 -1,6 C 83 % 1038,5 hPa 0,0 l/m 12,3 km/h (2 Bft) NO 50 0 min 0 W/m -4,1 C -7,1 C 12,3 km/h (2 Bft)
09.02.2012 00:45 -1,6 C 83 % 1038,5 hPa 0,0 l/m 10,5 km/h (2 Bft) NO 40 0 min 0 W/m -4,1 C -5,6 C 10,5 km/h (2 Bft)
09.02.2012 01:00 -1,6 C 83 % 1038,5 hPa 0,0 l/m 12,8 km/h (3 Bft) NO 45 0 min 0 W/m -4,1 C -7,4 C 12,8 km/h (3 Bft)
09.02.2012 01:15 -1,6 C 83 % 1038,5 hPa 0,0 l/m 15,6 km/h (3 Bft) NO 35 0 min 0 W/m -4,1 C -9,3 C 15,6 km/h (3 Bft)
09.02.2012 01:30 -1,6 C 84 % 1038,5 hPa 0,0 l/m 11,5 km/h (2 Bft) NO 55 0 min 0 W/m -3,9 C -6,5 C 11,5 km/h (2 Bft)
09.02.2012 01:45 -1,6 C 84 % 1038,5 hPa 0,0 l/m 11,3 km/h (2 Bft) NO 55 0 min 0 W/m -3,9 C -6,3 C 11,3 km/h (2 Bft)
09.02.2012 02:00 -1,7 C 84 % 1038,5 hPa 0,0 l/m 14,5 km/h (3 Bft) O-NO 65 0 min 0 W/m -4,0 C -8,7 C 14,5 km/h (3 Bft)
09.02.2012 02:14 -1,7 C 84 % 1038,5 hPa 0,0 l/m 12,3 km/h (2 Bft) NO 40 0 min 0 W/m -4,0 C -7,2 C 12,3 km/h (2 Bft)
09.02.2012 02:30 -1,9 C 84 % 1038,5 hPa 0,0 l/m 18,5 km/h (3 Bft) NO 50 0 min 0 W/m -4,2 C -11,3 C 18,5 km/h (3 Bft)
09.02.2012 02:45 -2,0 C 84 % 1038,5 hPa 0,0 l/m 17,3 km/h (3 Bft) NO 50 0 min 0 W/m -4,3 C -10,8 C 17,3 km/h (3 Bft)
09.02.2012 03:00 -2,1 C 84 % 1038,5 hPa 0,0 l/m 21,3 km/h (4 Bft) NO 50 0 min 0 W/m -4,4 C -13,0 C 21,3 km/h (4 Bft)
09.02.2012 03:15 -2,2 C 85 % 1037,5 hPa 0,0 l/m 16,1 km/h (3 Bft) NO 50 0 min 0 W/m -4,4 C -10,3 C 16,1 km/h (3 Bft)
09.02.2012 03:30 -2,2 C 85 % 1037,5 hPa 0,0 l/m 19,7 km/h (3 Bft) NO 45 0 min 0 W/m -4,4 C -12,3 C 19,7 km/h (3 Bft)
09.02.2012 03:45 -2,1 C 85 % 1037,5 hPa 0,0 l/m 12,8 km/h (3 Bft) NO 45 0 min 0 W/m -4,3 C -8,0 C 12,8 km/h (3 Bft)
09.02.2012 04:00 -1,9 C 84 % 1037,5 hPa 0,0 l/m 14,1 km/h (3 Bft) N-NO 25 0 min 0 W/m -4,2 C -8,7 C 14,1 km/h (3 Bft)
09.02.2012 04:15 -2,0 C 84 % 1037,5 hPa 0,0 l/m 19,0 km/h (3 Bft) N-NO 15 0 min 0 W/m -4,3 C -11,7 C 19,0 km/h (3 Bft)
09.02.2012 04:30 -2,0 C 83 % 1037,5 hPa 0,0 l/m 19,0 km/h (3 Bft) N 350 0 min 0 W/m -4,5 C -11,7 C 19,0 km/h (3 Bft)
09.02.2012 04:45 -2,0 C 84 % 1036,5 hPa 0,0 l/m 16,6 km/h (3 Bft) N 360 0 min 0 W/m -4,3 C -10,4 C 16,6 km/h (3 Bft)
09.02.2012 05:00 -1,9 C 84 % 1036,5 hPa 0,0 l/m 18,5 km/h (3 Bft) N 5 0 min 0 W/m -4,2 C -11,3 C 18,5 km/h (3 Bft)
09.02.2012 05:15 -1,8 C 84 % 1036,5 hPa 0,0 l/m 21,5 km/h (4 Bft) N-NO 15 0 min 0 W/m -4,1 C -12,7 C 21,5 km/h (4 Bft)
09.02.2012 05:30 -1,9 C 84 % 1036,5 hPa 0,0 l/m 23,1 km/h (4 Bft) N-NO 30 0 min 0 W/m -4,2 C -13,5 C 23,1 km/h (4 Bft)
09.02.2012 05:45 -2,0 C 85 % 1036,5 hPa 0,0 l/m 23,3 km/h (4 Bft) N 10 0 min 0 W/m -4,2 C -13,7 C 23,3 km/h (4 Bft)
09.02.2012 06:00 -1,9 C 85 % 1036,5 hPa 0,0 l/m 20,6 km/h (4 Bft) N 10 0 min 0 W/m -4,1 C -12,4 C 20,6 km/h (4 Bft)
09.02.2012 06:15 -2,0 C 85 % 1036,5 hPa 0,0 l/m 18,8 km/h (3 Bft) N 360 0 min 0 W/m -4,2 C -11,6 C 18,8 km/h (3 Bft)
09.02.2012 06:30 -1,8 C 85 % 1035,5 hPa 0,0 l/m 17,0 km/h (3 Bft) N 350 0 min 0 W/m -4,0 C -10,4 C 17,0 km/h (3 Bft)
09.02.2012 06:44 -1,6 C 86 % 1035,5 hPa 0,0 l/m 16,5 km/h (3 Bft) N-NW 345 0 min 0 W/m -3,6 C -9,8 C 16,5 km/h (3 Bft)
09.02.2012 07:00 -1,2 C 86 % 1035,5 hPa 0,0 l/m 22,8 km/h (4 Bft) N 5 0 min 0 W/m -3,2 C -12,5 C 22,8 km/h (4 Bft)
09.02.2012 07:15 -1,0 C 86 % 1035,5 hPa 0,0 l/m 23,8 km/h (4 Bft) N 10 0 min 0 W/m -3,0 C -12,6 C 23,8 km/h (4 Bft)
09.02.2012 07:30 -0,8 C 86 % 1035,5 hPa 0,0 l/m 20,0 km/h (4 Bft) N-NO 15 0 min 0 W/m -2,8 C -10,7 C 20,0 km/h (4 Bft)
09.02.2012 07:45 -0,6 C 86 % 1035,5 hPa 0,0 l/m 22,0 km/h (4 Bft) N-NO 25 0 min 0 W/m -2,6 C -11,3 C 22,0 km/h (4 Bft)
09.02.2012 07:59 -0,5 C 86 % 1035,5 hPa 0,0 l/m 28,5 km/h (5 Bft) NO 55 0 min 0 W/m -2,5 C -13,6 C 28,5 km/h (5 Bft)
09.02.2012 08:15 -0,7 C 85 % 1035,5 hPa 0,0 l/m 16,7 km/h (3 Bft) NO 45 0 min 0 W/m -2,9 C -8,8 C 16,7 km/h (3 Bft)
09.02.2012 08:30 -0,9 C 85 % 1035,5 hPa 0,0 l/m 18,4 km/h (3 Bft) NO 45 0 min 0 W/m -3,1 C -10,0 C 18,4 km/h (3 Bft)
09.02.2012 08:45 -1,0 C 85 % 1035,5 hPa 0,0 l/m 17,5 km/h (3 Bft) O-NO 60 0 min 0 W/m -3,2 C -9,6 C 17,5 km/h (3 Bft)
09.02.2012 09:00 -1,1 C 85 % 1035,5 hPa 0,0 l/m 15,3 km/h (3 Bft) O-NO 60 0 min 0 W/m -3,3 C -8,5 C 15,3 km/h (3 Bft)
09.02.2012 09:15 -1,0 C 85 % 1035,5 hPa 0,0 l/m 14,0 km/h (3 Bft) NO 55 0 min 0 W/m -3,2 C -7,6 C 14,0 km/h (3 Bft)
09.02.2012 09:30 -1,1 C 86 % 1035,5 hPa 0,0 l/m 14,4 km/h (3 Bft) NO 55 0 min 0 W/m -3,1 C -7,9 C 14,4 km/h (3 Bft)
09.02.2012 09:45 -1,3 C 85 % 1035,5 hPa 0,0 l/m 19,4 km/h (3 Bft) O-NO 65 0 min 0 W/m -3,5 C -11,0 C 19,4 km/h (3 Bft)
09.02.2012 10:00 -1,3 C 85 % 1035,5 hPa 0,0 l/m 13,8 km/h (3 Bft) NO 45 0 min 0 W/m -3,5 C -7,8 C 13,8 km/h (3 Bft)
09.02.2012 10:15 -1,0 C 85 % 1035,5 hPa 0,0 l/m 22,3 km/h (4 Bft) NO 55 0 min 0 W/m -3,2 C -12,0 C 22,3 km/h (4 Bft)
09.02.2012 10:29 -1,1 C 84 % 1035,5 hPa 0,0 l/m 18,5 km/h (3 Bft) NO 55 0 min 0 W/m -3,4 C -10,3 C 18,5 km/h (3 Bft)
09.02.2012 10:45 -1,0 C 80 % 1036,5 hPa 0,0 l/m 20,8 km/h (4 Bft) NO 55 0 min 0 W/m -4,0 C -11,3 C 20,8 km/h (4 Bft)
09.02.2012 11:00 -1,0 C 75 % 1036,5 hPa 0,0 l/m 20,8 km/h (4 Bft) NO 50 0 min 0 W/m -4,9 C -11,3 C 20,8 km/h (4 Bft)
09.02.2012 11:15 -1,0 C 71 % 1036,5 hPa 0,0 l/m 21,8 km/h (4 Bft) O-NO 65 0 min 0 W/m -5,6 C -11,8 C 21,8 km/h (4 Bft)
09.02.2012 11:30 -1,0 C 69 % 1036,5 hPa 0,0 l/m 23,6 km/h (4 Bft) O-NO 60 0 min 0 W/m -5,9 C -12,5 C 23,6 km/h (4 Bft)
09.02.2012 11:45 -1,1 C 70 % 1036,5 hPa 0,0 l/m 24,0 km/h (4 Bft) NO 50 0 min 0 W/m -5,9 C -12,8 C 24,0 km/h (4 Bft)
09.02.2012 12:00 -0,8 C 69 % 1036,5 hPa 0,0 l/m 18,2 km/h (3 Bft) NO 40 0 min 0 W/m -5,8 C -9,8 C 18,2 km/h (3 Bft)
09.02.2012 12:15 -0,9 C 71 % 1037,5 hPa 0,0 l/m 15,6 km/h (3 Bft) NO 55 0 min 0 W/m -5,5 C -8,4 C 15,6 km/h (3 Bft)
09.02.2012 12:30 -0,6 C 72 % 1036,5 hPa 0,0 l/m 17,0 km/h (3 Bft) O-NO 65 0 min 0 W/m -5,0 C -8,9 C 17,0 km/h (3 Bft)
09.02.2012 12:45 -0,8 C 72 % 1036,5 hPa 0,0 l/m 14,6 km/h (3 Bft) NO 50 0 min 0 W/m -5,2 C -7,7 C 14,6 km/h (3 Bft)
09.02.2012 13:00 -0,4 C 73 % 1036,5 hPa 0,0 l/m 13,6 km/h (3 Bft) O-NO 60 0 min 0 W/m -4,6 C -6,6 C 13,6 km/h (3 Bft)
09.02.2012 13:15 -0,2 C 73 % 1036,5 hPa 0,0 l/m 15,3 km/h (3 Bft) NO 55 0 min 0 W/m -4,4 C -7,4 C 15,3 km/h (3 Bft)
09.02.2012 13:30 -0,2 C 73 % 1036,5 hPa 0,0 l/m 18,4 km/h (3 Bft) O-NO 60 0 min 0 W/m -4,4 C -9,1 C 18,4 km/h (3 Bft)
09.02.2012 13:45 -0,5 C 74 % 1036,5 hPa 0,0 l/m 16,5 km/h (3 Bft) O-NO 60 0 min 0 W/m -4,5 C -8,5 C 16,5 km/h (3 Bft)
09.02.2012 14:00 -0,4 C 76 % 1037,5 hPa 0,0 l/m 13,0 km/h (3 Bft) NO 55 0 min 0 W/m -4,1 C -6,2 C 13,0 km/h (3 Bft)
09.02.2012 14:15 0,1 C 75 % 1037,5 hPa 0,0 l/m 19,2 km/h (3 Bft) NO 55 0 min 0 W/m -3,8 C -9,1 C 19,2 km/h (3 Bft)
09.02.2012 14:29 0,4 C 75 % 1036,5 hPa 0,0 l/m 14,8 km/h (3 Bft) NO 50 0 min 0 W/m -3,5 C -6,4 C 14,8 km/h (3 Bft)
09.02.2012 14:45 0,3 C 76 % 1036,5 hPa 0,0 l/m 16,3 km/h (3 Bft) NO 45 0 min 0 W/m -3,4 C -7,4 C 16,3 km/h (3 Bft)
09.02.2012 15:00 0,3 C 77 % 1036,5 hPa 0,0 l/m 14,5 km/h (3 Bft) O-NO 60 0 min 0 W/m -3,2 C -6,3 C 14,5 km/h (3 Bft)
09.02.2012 15:15 0,3 C 77 % 1036,5 hPa 0,0 l/m 22,4 km/h (4 Bft) NO 50 0 min 0 W/m -3,2 C -10,3 C 22,4 km/h (4 Bft)
09.02.2012 15:30 0,2 C 78 % 1037,5 hPa 0,0 l/m 16,0 km/h (3 Bft) NO 55 0 min 0 W/m -3,2 C -7,3 C 16,0 km/h (3 Bft)
09.02.2012 15:45 0,1 C 79 % 1037,5 hPa 0,0 l/m 12,8 km/h (3 Bft) O-NO 60 0 min 0 W/m -3,1 C -5,4 C 12,8 km/h (3 Bft)
09.02.2012 16:00 0,0 C 80 % 1037,5 hPa 0,0 l/m 12,3 km/h (2 Bft) NO 55 0 min 0 W/m -3,0 C -5,2 C 12,3 km/h (2 Bft)
09.02.2012 16:15 0,1 C 81 % 1037,5 hPa 0,0 l/m 16,1 km/h (3 Bft) O-NO 60 0 min 0 W/m -2,8 C -7,5 C 16,1 km/h (3 Bft)
09.02.2012 16:30 0,1 C 77 % 1037,5 hPa 0,0 l/m 23,3 km/h (4 Bft) O 80 0 min 0 W/m -3,4 C -10,9 C 23,3 km/h (4 Bft)
09.02.2012 16:45 0,1 C 75 % 1037,5 hPa 0,0 l/m 18,6 km/h (3 Bft) O 95 0 min 0 W/m -3,8 C -8,8 C 18,6 km/h (3 Bft)
09.02.2012 17:00 -0,2 C 73 % 1038,5 hPa 0,0 l/m 19,1 km/h (3 Bft) O 85 0 min 0 W/m -4,4 C -9,5 C 19,1 km/h (3 Bft)
09.02.2012 17:15 -0,4 C 70 % 1038,5 hPa 0,0 l/m 19,4 km/h (3 Bft) O 80 0 min 0 W/m -5,2 C -9,9 C 19,4 km/h (3 Bft)
09.02.2012 17:30 -0,6 C 70 % 1038,5 hPa 0,0 l/m 21,0 km/h (4 Bft) O 90 0 min 0 W/m -5,4 C -10,9 C 21,0 km/h (4 Bft)
09.02.2012 17:45 -0,6 C 70 % 1038,5 hPa 0,0 l/m 21,3 km/h (4 Bft) O 100 0 min 0 W/m -5,4 C -11,0 C 21,3 km/h (4 Bft)
09.02.2012 18:00 -0,9 C 69 % 1038,5 hPa 0,0 l/m 22,8 km/h (4 Bft) O-NO 70 0 min 0 W/m -5,9 C -12,1 C 22,8 km/h (4 Bft)
09.02.2012 18:15 -1,1 C 70 % 1038,5 hPa 0,0 l/m 29,1 km/h (5 Bft) O 90 0 min 0 W/m -5,9 C -14,7 C 29,1 km/h (5 Bft)
09.02.2012 18:29 -1,3 C 71 % 1038,5 hPa 0,0 l/m 23,8 km/h (4 Bft) O-NO 60 0 min 0 W/m -5,9 C -13,0 C 23,8 km/h (4 Bft)
09.02.2012 18:45 -1,4 C 73 % 1039,5 hPa 0,0 l/m 20,5 km/h (4 Bft) O-NO 65 0 min 0 W/m -5,6 C -11,7 C 20,5 km/h (4 Bft)
09.02.2012 19:00 -1,6 C 74 % 1039,5 hPa 0,0 l/m 15,8 km/h (3 Bft) O-NO 75 0 min 0 W/m -5,6 C -9,4 C 15,8 km/h (3 Bft)
09.02.2012 19:15 -1,7 C 75 % 1039,5 hPa 0,0 l/m 12,8 km/h (3 Bft) O-NO 70 0 min 0 W/m -5,5 C -7,6 C 12,8 km/h (3 Bft)
09.02.2012 19:30 -1,8 C 76 % 1039,5 hPa 0,0 l/m 16,5 km/h (3 Bft) O 80 0 min 0 W/m -5,5 C -10,1 C 16,5 km/h (3 Bft)
09.02.2012 19:45 -1,9 C 76 % 1039,5 hPa 0,0 l/m 10,2 km/h (2 Bft) O 85 0 min 0 W/m -5,6 C -5,7 C 10,2 km/h (2 Bft)
09.02.2012 20:00 -1,9 C 77 % 1039,5 hPa 0,0 l/m 19,8 km/h (3 Bft) O 85 0 min 0 W/m -5,4 C -12,0 C 19,8 km/h (3 Bft)
09.02.2012 20:15 -2,0 C 77 % 1040,5 hPa 0,0 l/m 12,6 km/h (3 Bft) O-NO 65 0 min 0 W/m -5,5 C -7,8 C 12,6 km/h (3 Bft)
09.02.2012 20:30 -2,0 C 78 % 1040,5 hPa 0,0 l/m 11,1 km/h (2 Bft) O-NO 65 0 min 0 W/m -5,3 C -6,6 C 11,1 km/h (2 Bft)
09.02.2012 20:45 -2,1 C 79 % 1040,5 hPa 0,0 l/m 16,5 km/h (3 Bft) O-NO 75 0 min 0 W/m -5,2 C -10,4 C 16,5 km/h (3 Bft)
09.02.2012 21:00 -2,0 C 80 % 1040,5 hPa 0,0 l/m 8,9 km/h (2 Bft) O 80 0 min 0 W/m -5,0 C -4,6 C 8,9 km/h (2 Bft)
09.02.2012 21:15 -1,8 C 80 % 1040,5 hPa 0,0 l/m 5,4 km/h (2 Bft) NO 55 0 min 0 W/m -4,8 C -1,8 C 5,4 km/h (2 Bft)
09.02.2012 21:30 -1,8 C 80 % 1040,5 hPa 0,0 l/m 11,0 km/h (2 Bft) O-NO 75 0 min 0 W/m -4,8 C -6,3 C 11,0 km/h (2 Bft)
09.02.2012 21:45 -1,8 C 80 % 1040,5 hPa 0,0 l/m 7,9 km/h (2 Bft) O-NO 65 0 min 0 W/m -4,8 C -3,4 C 7,9 km/h (2 Bft)
09.02.2012 22:00 -1,8 C 81 % 1041,5 hPa 0,0 l/m 8,3 km/h (2 Bft) O-NO 65 0 min 0 W/m -4,6 C -3,8 C 8,3 km/h (2 Bft)
09.02.2012 22:15 -1,8 C 81 % 1041,5 hPa 0,0 l/m 8,9 km/h (2 Bft) O-NO 65 0 min 0 W/m -4,6 C -4,4 C 8,9 km/h (2 Bft)
09.02.2012 22:29 -1,7 C 81 % 1041,5 hPa 0,0 l/m 12,3 km/h (2 Bft) O-NO 65 0 min 0 W/m -4,5 C -7,2 C 12,3 km/h (2 Bft)
09.02.2012 22:45 -1,8 C 81 % 1041,5 hPa 0,0 l/m 7,4 km/h (2 Bft) O 80 0 min 0 W/m -4,6 C -2,9 C 7,4 km/h (2 Bft)
09.02.2012 23:00 -2,1 C 81 % 1041,5 hPa 0,0 l/m 5,5 km/h (2 Bft) O-NO 65 0 min 0 W/m -4,9 C -2,1 C 5,5 km/h (2 Bft)
09.02.2012 23:15 -2,2 C 81 % 1041,5 hPa 0,0 l/m 5,9 km/h (2 Bft) O-NO 70 0 min 0 W/m -5,0 C -2,2 C 5,9 km/h (2 Bft)
09.02.2012 23:30 -2,4 C 81 % 1041,5 hPa 0,0 l/m 9,9 km/h (2 Bft) O 95 0 min 0 W/m -5,2 C -6,0 C 9,9 km/h (2 Bft)
09.02.2012 23:45 -2,4 C 81 % 1041,5 hPa 0,0 l/m 5,4 km/h (2 Bft) O 80 0 min 0 W/m -5,2 C -2,4 C 5,4 km/h (2 Bft)
_ Min-Zeit 23:30 11:30 06:30 - 21:15 - - - - 11:30 18:15 21:15
Minimum _ -2,4 C 69 % 1035,5 hPa - 5,4 km/h (2 Bft) - - - - -5,9 C -14,7 C 5,4 km/h (2 Bft)
_ Max-Zeit 14:29 06:44 22:00 00:15 18:15 - - 00:15 00:15 07:59 00:15 18:15
Maximum _ 0,4 C 86 % 1041,5 hPa 0,0 l/m 29,1 km/h
O (5 Bft)
- - 0 min 0 W/m -2,5 C -1,6 C 29,1 km/h
O (5 Bft)
Durchschnitt _ -1,2 C 80 % 1037,8 hPa #0,0 l/m 16,4 km/h (3 Bft) NO - #0 min. 0 W/m -4,3 C -8,9 C 16,4 km/h (3 Bft)
copyright by Holger Just